This is the latest recevied weather packets stored in our database for station/object ES2ADF-5. If no packets are shown the sender has not sent any weather packets the latest 10 day(s).
| Time | Temp. | Humidity | Pressure | Rain* | Wind** | Luminosity | Snow |
|---|---|---|---|---|---|---|---|
| 1778042496 | 11.67° C | 65% | 1011.4 hPa | 0 mm | - | - | - |
| 1778042195 | 10.56° C | 70% | 1011.5 hPa | 0 mm | - | - | - |
| 1778041895 | 7.78° C | 78% | 1011.5 hPa | 0 mm | - | - | - |
| 1778041595 | 5.56° C | 81% | 1011.5 hPa | 0 mm | - | - | - |
| 1778041294 | 4.44° C | 81% | 1011.4 hPa | 0 mm | - | - | - |
| 1778040994 | 2.78° C | 82% | 1011.3 hPa | 0 mm | - | - | - |
| 1778040694 | 2.78° C | 81% | 1011.4 hPa | 0 mm | - | - | - |
| 1778040398 | 2.22° C | 81% | 1011.4 hPa | 0 mm | - | - | - |
| 1778040093 | 2.22° C | 82% | 1011.2 hPa | 0 mm | - | - | - |
| 1778039793 | 1.67° C | 82% | 1011.3 hPa | 0 mm | - | - | - |
| 1778039493 | 1.67° C | 82% | 1011 hPa | 0 mm | - | - | - |
| 1778039192 | 1.11° C | 83% | 1011 hPa | 0 mm | - | - | - |
| 1778038892 | 0.56° C | 82% | 1011 hPa | 0 mm | - | - | - |
| 1778038592 | 0.56° C | 82% | 1010.9 hPa | 0 mm | - | - | - |
| 1778038291 | 0° C | 82% | 1011 hPa | 0 mm | - | - | - |
| 1778037991 | 0° C | 82% | 1010.8 hPa | 0 mm | - | - | - |
| 1778037691 | 0° C | 82% | 1010.6 hPa | 0 mm | - | - | - |
| 1778037391 | 0° C | 81% | 1010.6 hPa | 0 mm | - | - | - |
| 1778037090 | 0° C | 81% | 1010.5 hPa | 0 mm | - | - | - |
| 1778036790 | 0° C | 81% | 1010.6 hPa | 0 mm | - | - | - |
| 1778036490 | 0° C | 82% | 1010.5 hPa | 0 mm | - | - | - |
| 1778036189 | 0° C | 82% | 1010.4 hPa | 0 mm | - | - | - |
| 1778035889 | 0° C | 82% | 1010.2 hPa | 0 mm | - | - | - |
| 1778035589 | 0° C | 82% | 1010.2 hPa | 0 mm | - | - | - |
| 1778035289 | -0.56° C | 81% | 1010.1 hPa | 0 mm | - | - | - |
* Rain latest hour (hover to see other rain measurements)
** Current wind speed in m/s (hover to see current wind gust speed)